CheckWX is a tool to help pilots better visualize weather data.  It is not intended as a substitute for an official pre-flight weather briefing.

01:27:44 UTC

KCCA METAR
Clinton Municipal Airport
Clinton, Arkansas, USA
Current

13 mins ago

KCCA 200115Z AUTO 00000KT 10SM CLR 29/26 A2998 RMK AO2
Observed
Aug-20 @ 01:15 UTC
Visibility
10 SM
Flight Rules
VFR
Cloud Levels
  • Clear skies
Temperature
29°C / 84°F
Dewpoint
26°C / 79°F
Heat Index
36°C / 96°F
Humidity
84%
Altimeter
29.98" Hg
Pressure
1015.22 hPa
Previous

33 mins ago

KCCA 200055Z AUTO 00000KT 10SM CLR 30/26 A2997 RMK AO2
Observed
Aug-20 @ 00:55 UTC
Visibility
10 SM
Flight Rules
VFR
Cloud Levels
  • Clear skies
Temperature
30°C / 86°F
Dewpoint
26°C / 79°F
Heat Index
37°C / 99°F
Humidity
79%
Altimeter
29.97" Hg
Pressure
1014.92 hPa
Previous

53 mins ago

KCCA 200035Z AUTO 00000KT 10SM CLR 31/27 A2997 RMK AO2
Observed
Aug-20 @ 00:35 UTC
Visibility
10 SM
Flight Rules
VFR
Cloud Levels
  • Clear skies
Temperature
31°C / 88°F
Dewpoint
27°C / 81°F
Heat Index
41°C / 106°F
Humidity
79%
Altimeter
29.97" Hg
Pressure
1014.92 hPa